sensor_id;sensor_type;location;lat;lon;timestamp;pressure;altitude;pressure_sealevel;temperature;humidity
62694;BME280;48759;52.544;13.418;2022-11-06T00:00:51;101228.97;;;8.94;100.00
62694;BME280;48759;52.544;13.418;2022-11-06T00:03:18;101231.28;;;8.60;100.00
62694;BME280;48759;52.544;13.418;2022-11-06T00:05:45;101229.47;;;8.75;100.00
62694;BME280;48759;52.544;13.418;2022-11-06T00:08:31;101230.44;;;8.59;100.00
62694;BME280;48759;52.544;13.418;2022-11-06T00:10:58;101229.44;;;8.52;100.00
62694;BME280;48759;52.544;13.418;2022-11-06T00:13:25;101218.72;;;8.42;100.00
62694;BME280;48759;52.544;13.418;2022-11-06T00:15:52;101222.66;;;8.40;100.00
62694;BME280;48759;52.544;13.418;2022-11-06T00:18:19;101231.06;;;8.38;100.00
62694;BME280;48759;52.544;13.418;2022-11-06T00:20:46;101223.28;;;8.50;100.00
62694;BME280;48759;52.544;13.418;2022-11-06T00:23:13;101223.34;;;8.03;100.00
62694;BME280;48759;52.544;13.418;2022-11-06T00:25:40;101225.28;;;8.33;100.00
62694;BME280;48759;52.544;13.418;2022-11-06T00:28:07;101216.34;;;8.31;100.00
62694;BME280;48759;52.544;13.418;2022-11-06T00:30:33;101214.84;;;8.21;100.00
62694;BME280;48759;52.544;13.418;2022-11-06T00:33:00;101214.44;;;8.40;100.00
62694;BME280;48759;52.544;13.418;2022-11-06T00:35:26;101217.34;;;8.38;100.00
62694;BME280;48759;52.544;13.418;2022-11-06T00:37:54;101227.59;;;8.44;100.00
62694;BME280;48759;52.544;13.418;2022-11-06T00:40:21;101223.13;;;8.52;100.00
62694;BME280;48759;52.544;13.418;2022-11-06T00:42:52;101213.22;;;8.42;100.00
62694;BME280;48759;52.544;13.418;2022-11-06T00:45:18;101219.88;;;8.48;100.00
62694;BME280;48759;52.544;13.418;2022-11-06T00:47:45;101214.59;;;8.38;100.00
62694;BME280;48759;52.544;13.418;2022-11-06T00:50:11;101214.19;;;8.50;100.00
62694;BME280;48759;52.544;13.418;2022-11-06T00:52:38;101224.03;;;8.44;100.00
62694;BME280;48759;52.544;13.418;2022-11-06T00:55:06;101220.38;;;8.52;100.00
62694;BME280;48759;52.544;13.418;2022-11-06T00:57:33;101223.16;;;8.43;100.00
62694;BME280;48759;52.544;13.418;2022-11-06T00:59:59;101222.97;;;8.45;100.00
62694;BME280;48759;52.544;13.418;2022-11-06T01:02:26;101227.59;;;8.44;100.00
62694;BME280;48759;52.544;13.418;2022-11-06T01:04:52;101224.72;;;7.91;100.00
62694;BME280;48759;52.544;13.418;2022-11-06T01:07:19;101221.75;;;8.48;100.00
62694;BME280;48759;52.544;13.418;2022-11-06T01:09:45;101212.16;;;8.52;100.00
62694;BME280;48759;52.544;13.418;2022-11-06T01:12:13;101218.84;;;8.72;100.00
62694;BME280;48759;52.544;13.418;2022-11-06T01:14:40;101220.50;;;8.58;100.00
62694;BME280;48759;52.544;13.418;2022-11-06T01:17:07;101216.94;;;8.19;100.00
62694;BME280;48759;52.544;13.418;2022-11-06T01:19:34;101206.38;;;8.38;100.00
62694;BME280;48759;52.544;13.418;2022-11-06T01:22:00;101207.75;;;8.42;100.00
62694;BME280;48759;52.544;13.418;2022-11-06T01:24:27;101208.00;;;8.25;100.00
62694;BME280;48759;52.544;13.418;2022-11-06T01:26:55;101210.63;;;8.18;100.00
62694;BME280;48759;52.544;13.418;2022-11-06T01:29:22;101199.78;;;8.25;100.00
62694;BME280;48759;52.544;13.418;2022-11-06T01:31:49;101201.69;;;8.16;100.00
62694;BME280;48759;52.544;13.418;2022-11-06T01:34:16;101192.56;;;8.24;100.00
62694;BME280;48759;52.544;13.418;2022-11-06T01:36:43;101196.25;;;8.39;100.00
62694;BME280;48759;52.544;13.418;2022-11-06T01:39:12;101182.16;;;8.19;100.00
62694;BME280;48759;52.544;13.418;2022-11-06T01:41:40;101179.00;;;8.30;100.00
62694;BME280;48759;52.544;13.418;2022-11-06T01:47:24;101192.72;;;8.30;100.00
62694;BME280;48759;52.544;13.418;2022-11-06T01:49:54;101186.50;;;8.36;100.00
62694;BME280;48759;52.544;13.418;2022-11-06T01:52:21;101177.34;;;8.21;100.00
62694;BME280;48759;52.544;13.418;2022-11-06T01:54:51;101178.25;;;8.36;100.00
62694;BME280;48759;52.544;13.418;2022-11-06T01:57:18;101173.47;;;8.38;100.00
62694;BME280;48759;52.544;13.418;2022-11-06T01:59:45;101163.66;;;8.13;100.00
62694;BME280;48759;52.544;13.418;2022-11-06T02:02:15;101173.63;;;8.37;100.00
62694;BME280;48759;52.544;13.418;2022-11-06T02:04:44;101166.22;;;8.15;100.00
62694;BME280;48759;52.544;13.418;2022-11-06T02:07:12;101165.91;;;8.40;100.00
62694;BME280;48759;52.544;13.418;2022-11-06T02:09:39;101156.78;;;8.48;100.00
62694;BME280;48759;52.544;13.418;2022-11-06T02:12:13;101158.19;;;8.67;100.00
62694;BME280;48759;52.544;13.418;2022-11-06T02:14:50;101158.72;;;8.39;100.00
62694;BME280;48759;52.544;13.418;2022-11-06T02:17:32;101149.56;;;8.47;100.00
62694;BME280;48759;52.544;13.418;2022-11-06T02:20:06;101147.00;;;8.45;100.00
62694;BME280;48759;52.544;13.418;2022-11-06T02:22:52;101157.28;;;8.52;100.00
62694;BME280;48759;52.544;13.418;2022-11-06T02:25:30;101152.50;;;8.45;100.00
62694;BME280;48759;52.544;13.418;2022-11-06T02:28:05;101153.97;;;8.33;100.00
62694;BME280;48759;52.544;13.418;2022-11-06T02:30:42;101148.72;;;8.24;100.00
62694;BME280;48759;52.544;13.418;2022-11-06T02:33:12;101140.66;;;8.22;100.00
62694;BME280;48759;52.544;13.418;2022-11-06T02:35:42;101142.81;;;8.04;100.00
62694;BME280;48759;52.544;13.418;2022-11-06T02:38:15;101140.53;;;8.16;100.00
62694;BME280;48759;52.544;13.418;2022-11-06T02:40:46;101143.41;;;8.22;100.00
62694;BME280;48759;52.544;13.418;2022-11-06T02:43:16;101137.75;;;7.85;100.00
62694;BME280;48759;52.544;13.418;2022-11-06T02:45:47;101143.72;;;7.96;100.00
62694;BME280;48759;52.544;13.418;2022-11-06T02:48:19;101152.69;;;8.13;100.00
62694;BME280;48759;52.544;13.418;2022-11-06T02:50:48;101150.34;;;8.02;100.00
62694;BME280;48759;52.544;13.418;2022-11-06T02:53:17;101145.50;;;8.20;100.00
62694;BME280;48759;52.544;13.418;2022-11-06T02:55:48;101137.25;;;8.20;100.00
62694;BME280;48759;52.544;13.418;2022-11-06T02:58:20;101141.22;;;8.40;100.00
62694;BME280;48759;52.544;13.418;2022-11-06T03:00:53;101144.59;;;8.51;100.00
62694;BME280;48759;52.544;13.418;2022-11-06T03:03:25;101139.81;;;8.44;100.00
62694;BME280;48759;52.544;13.418;2022-11-06T03:05:56;101130.09;;;8.42;100.00
62694;BME280;48759;52.544;13.418;2022-11-06T03:08:26;101144.59;;;8.51;100.00
62694;BME280;48759;52.544;13.418;2022-11-06T03:11:02;101145.34;;;8.14;100.00
62694;BME280;48759;52.544;13.418;2022-11-06T03:13:38;101145.84;;;8.09;100.00
62694;BME280;48759;52.544;13.418;2022-11-06T03:16:17;101142.94;;;8.11;100.00
62694;BME280;48759;52.544;13.418;2022-11-06T03:18:53;101136.16;;;8.29;100.00
62694;BME280;48759;52.544;13.418;2022-11-06T03:21:24;101140.72;;;8.06;100.00
62694;BME280;48759;52.544;13.418;2022-11-06T03:23:54;101138.47;;;8.10;100.00
62694;BME280;48759;52.544;13.418;2022-11-06T03:26:26;101132.41;;;7.91;100.00
62694;BME280;48759;52.544;13.418;2022-11-06T03:28:59;101134.41;;;7.66;100.00
62694;BME280;48759;52.544;13.418;2022-11-06T03:31:31;101143.16;;;7.62;100.00
62694;BME280;48759;52.544;13.418;2022-11-06T03:34:03;101138.59;;;7.46;100.00
62694;BME280;48759;52.544;13.418;2022-11-06T03:36:33;101126.78;;;7.46;100.00
62694;BME280;48759;52.544;13.418;2022-11-06T03:39:02;101132.41;;;7.52;100.00
62694;BME280;48759;52.544;13.418;2022-11-06T03:41:34;101135.84;;;7.54;100.00
62694;BME280;48759;52.544;13.418;2022-11-06T03:44:07;101132.03;;;7.16;100.00
62694;BME280;48759;52.544;13.418;2022-11-06T03:46:37;101134.97;;;7.54;100.00
62694;BME280;48759;52.544;13.418;2022-11-06T03:49:06;101132.38;;;7.60;100.00
62694;BME280;48759;52.544;13.418;2022-11-06T03:51:39;101122.25;;;7.69;100.00
62694;BME280;48759;52.544;13.418;2022-11-06T03:54:10;101131.88;;;7.65;100.00
62694;BME280;48759;52.544;13.418;2022-11-06T03:56:42;101117.25;;;7.34;100.00
62694;BME280;48759;52.544;13.418;2022-11-06T03:59:13;101118.75;;;7.44;100.00
62694;BME280;48759;52.544;13.418;2022-11-06T04:01:44;101111.06;;;7.40;100.00
62694;BME280;48759;52.544;13.418;2022-11-06T04:04:15;101112.44;;;7.36;100.00
62694;BME280;48759;52.544;13.418;2022-11-06T04:06:47;101120.56;;;7.13;100.00
62694;BME280;48759;52.544;13.418;2022-11-06T04:09:19;101120.50;;;7.29;100.00
62694;BME280;48759;52.544;13.418;2022-11-06T04:12:05;101108.03;;;7.18;100.00
62694;BME280;48759;52.544;13.418;2022-11-06T04:14:55;101121.19;;;7.31;100.00
62694;BME280;48759;52.544;13.418;2022-11-06T04:17:25;101112.84;;;7.16;100.00
62694;BME280;48759;52.544;13.418;2022-11-06T04:19:56;101108.16;;;7.41;100.00
62694;BME280;48759;52.544;13.418;2022-11-06T04:22:33;101103.09;;;7.22;100.00
62694;BME280;48759;52.544;13.418;2022-11-06T04:25:14;101106.47;;;7.32;100.00
62694;BME280;48759;52.544;13.418;2022-11-06T04:28:20;101108.09;;;7.10;100.00
62694;BME280;48759;52.544;13.418;2022-11-06T04:30:57;101108.44;;;6.99;100.00
62694;BME280;48759;52.544;13.418;2022-11-06T04:33:33;101099.38;;;6.90;100.00
62694;BME280;48759;52.544;13.418;2022-11-06T04:36:09;101109.28;;;7.00;100.00
62694;BME280;48759;52.544;13.418;2022-11-06T04:38:46;101096.91;;;7.28;100.00
62694;BME280;48759;52.544;13.418;2022-11-06T04:41:19;101110.28;;;7.23;100.00
62694;BME280;48759;52.544;13.418;2022-11-06T04:43:52;101107.13;;;7.34;100.00
62694;BME280;48759;52.544;13.418;2022-11-06T04:46:24;101106.88;;;7.05;100.00
62694;BME280;48759;52.544;13.418;2022-11-06T04:48:53;101111.38;;;6.81;100.00
62694;BME280;48759;52.544;13.418;2022-11-06T04:51:22;101112.06;;;6.75;100.00
62694;BME280;48759;52.544;13.418;2022-11-06T04:53:52;101102.41;;;7.12;100.00
62694;BME280;48759;52.544;13.418;2022-11-06T04:56:24;101108.59;;;7.06;100.00
62694;BME280;48759;52.544;13.418;2022-11-06T04:58:52;101106.31;;;7.34;100.00
62694;BME280;48759;52.544;13.418;2022-11-06T05:01:18;101093.19;;;7.13;100.00
62694;BME280;48759;52.544;13.418;2022-11-06T05:03:46;101088.28;;;6.68;100.00
62694;BME280;48759;52.544;13.418;2022-11-06T05:06:12;101090.84;;;7.02;100.00
62694;BME280;48759;52.544;13.418;2022-11-06T05:08:39;101081.63;;;6.95;100.00
62694;BME280;48759;52.544;13.418;2022-11-06T05:11:06;101078.91;;;6.78;100.00
62694;BME280;48759;52.544;13.418;2022-11-06T05:13:32;101086.88;;;6.96;100.00
62694;BME280;48759;52.544;13.418;2022-11-06T05:15:59;101090.88;;;6.77;100.00
62694;BME280;48759;52.544;13.418;2022-11-06T05:18:26;101086.38;;;7.09;100.00
62694;BME280;48759;52.544;13.418;2022-11-06T05:20:57;101092.56;;;6.86;100.00
62694;BME280;48759;52.544;13.418;2022-11-06T05:23:38;101081.25;;;6.89;100.00
62694;BME280;48759;52.544;13.418;2022-11-06T05:26:05;101091.19;;;6.74;100.00
62694;BME280;48759;52.544;13.418;2022-11-06T05:28:32;101085.72;;;6.90;100.00
62694;BME280;48759;52.544;13.418;2022-11-06T05:30:59;101081.28;;;6.81;100.00
62694;BME280;48759;52.544;13.418;2022-11-06T05:33:25;101086.88;;;6.72;100.00
62694;BME280;48759;52.544;13.418;2022-11-06T05:35:54;101087.28;;;6.77;100.00
62694;BME280;48759;52.544;13.418;2022-11-06T05:38:20;101083.16;;;6.57;100.00
62694;BME280;48759;52.544;13.418;2022-11-06T05:40:46;101083.28;;;6.71;100.00
62694;BME280;48759;52.544;13.418;2022-11-06T05:43:13;101088.28;;;6.35;100.00
62694;BME280;48759;52.544;13.418;2022-11-06T05:45:39;101081.09;;;6.50;100.00
62694;BME280;48759;52.544;13.418;2022-11-06T05:48:06;101078.53;;;6.65;100.00
62694;BME280;48759;52.544;13.418;2022-11-06T05:50:32;101089.47;;;6.65;100.00
62694;BME280;48759;52.544;13.418;2022-11-06T05:53:00;101087.94;;;6.54;100.00
62694;BME280;48759;52.544;13.418;2022-11-06T05:55:26;101091.19;;;6.50;100.00
62694;BME280;48759;52.544;13.418;2022-11-06T05:57:53;101092.56;;;6.54;100.00
62694;BME280;48759;52.544;13.418;2022-11-06T06:00:19;101097.00;;;6.31;100.00
62694;BME280;48759;52.544;13.418;2022-11-06T06:02:46;101089.13;;;6.60;100.00
62694;BME280;48759;52.544;13.418;2022-11-06T06:05:12;101086.25;;;6.86;100.00
62694;BME280;48759;52.544;13.418;2022-11-06T06:07:39;101094.63;;;6.76;100.00
62694;BME280;48759;52.544;13.418;2022-11-06T06:10:08;101098.69;;;6.72;100.00
62694;BME280;48759;52.544;13.418;2022-11-06T06:12:34;101093.25;;;6.80;100.00
62694;BME280;48759;52.544;13.418;2022-11-06T06:15:01;101093.06;;;6.90;100.00
62694;BME280;48759;52.544;13.418;2022-11-06T06:17:27;101091.19;;;6.90;100.00
62694;BME280;48759;52.544;13.418;2022-11-06T06:19:54;101086.72;;;6.89;100.00
62694;BME280;48759;52.544;13.418;2022-11-06T06:22:20;101092.56;;;6.86;100.00
62694;BME280;48759;52.544;13.418;2022-11-06T06:24:46;101085.38;;;6.85;100.00
62694;BME280;48759;52.544;13.418;2022-11-06T06:27:14;101082.81;;;6.92;100.00
62694;BME280;48759;52.544;13.418;2022-11-06T06:29:41;101088.78;;;6.87;100.00
62694;BME280;48759;52.544;13.418;2022-11-06T06:32:07;101100.78;;;6.78;100.00
62694;BME280;48759;52.544;13.418;2022-11-06T06:34:34;101092.22;;;6.89;100.00
62694;BME280;48759;52.544;13.418;2022-11-06T06:37:01;101097.16;;;7.02;100.00
62694;BME280;48759;52.544;13.418;2022-11-06T06:39:27;101100.69;;;7.11;100.00
62694;BME280;48759;52.544;13.418;2022-11-06T06:41:55;101099.69;;;7.12;100.00
62694;BME280;48759;52.544;13.418;2022-11-06T06:44:23;101103.13;;;7.06;100.00
62694;BME280;48759;52.544;13.418;2022-11-06T06:46:49;101108.25;;;7.17;100.00
62694;BME280;48759;52.544;13.418;2022-11-06T06:49:15;101098.47;;;7.14;100.00
62694;BME280;48759;52.544;13.418;2022-11-06T06:51:42;101116.47;;;7.09;100.00
62694;BME280;48759;52.544;13.418;2022-11-06T06:54:09;101110.94;;;7.33;100.00
62694;BME280;48759;52.544;13.418;2022-11-06T06:56:35;101105.47;;;7.33;100.00
62694;BME280;48759;52.544;13.418;2022-11-06T06:59:01;101110.97;;;7.17;100.00
62694;BME280;48759;52.544;13.418;2022-11-06T07:01:29;101116.03;;;7.36;100.00
62694;BME280;48759;52.544;13.418;2022-11-06T07:03:56;101109.25;;;7.16;100.00
62694;BME280;48759;52.544;13.418;2022-11-06T07:06:22;101111.53;;;7.51;100.00
62694;BME280;48759;52.544;13.418;2022-11-06T07:08:49;101120.59;;;7.91;100.00
62694;BME280;48759;52.544;13.418;2022-11-06T07:11:19;101115.25;;;7.97;100.00
62694;BME280;48759;52.544;13.418;2022-11-06T07:13:46;101112.72;;;7.96;100.00
62694;BME280;48759;52.544;13.418;2022-11-06T07:16:12;101120.94;;;8.50;100.00
62694;BME280;48759;52.544;13.418;2022-11-06T07:18:40;101112.53;;;8.28;100.00
62694;BME280;48759;52.544;13.418;2022-11-06T07:21:08;101107.50;;;8.55;100.00
62694;BME280;48759;52.544;13.418;2022-11-06T07:23:36;101111.41;;;8.60;100.00
62694;BME280;48759;52.544;13.418;2022-11-06T07:26:03;101117.38;;;8.64;100.00
62694;BME280;48759;52.544;13.418;2022-11-06T07:28:30;101109.44;;;8.69;100.00
62694;BME280;48759;52.544;13.418;2022-11-06T07:30:58;101105.91;;;8.60;100.00
62694;BME280;48759;52.544;13.418;2022-11-06T07:33:25;101107.75;;;8.45;100.00
62694;BME280;48759;52.544;13.418;2022-11-06T07:35:52;101112.50;;;8.74;100.00
62694;BME280;48759;52.544;13.418;2022-11-06T07:38:19;101110.50;;;9.05;100.00
62694;BME280;48759;52.544;13.418;2022-11-06T07:40:46;101114.06;;;8.68;100.00
62694;BME280;48759;52.544;13.418;2022-11-06T07:43:12;101109.72;;;9.11;100.00
62694;BME280;48759;52.544;13.418;2022-11-06T07:45:39;101105.94;;;9.12;100.00
62694;BME280;48759;52.544;13.418;2022-11-06T07:48:06;101114.00;;;9.14;100.00
62694;BME280;48759;52.544;13.418;2022-11-06T07:50:32;101117.13;;;9.26;100.00
62694;BME280;48759;52.544;13.418;2022-11-06T07:53:01;101114.84;;;9.14;100.00
62694;BME280;48759;52.544;13.418;2022-11-06T07:55:28;101117.69;;;9.06;100.00
62694;BME280;48759;52.544;13.418;2022-11-06T07:57:55;101109.53;;;8.98;100.00
62694;BME280;48759;52.544;13.418;2022-11-06T08:00:22;101115.50;;;9.31;100.00
62694;BME280;48759;52.544;13.418;2022-11-06T08:02:50;101117.38;;;9.16;100.00
62694;BME280;48759;52.544;13.418;2022-11-06T08:05:17;101113.66;;;8.94;100.00
62694;BME280;48759;52.544;13.418;2022-11-06T08:07:43;101111.59;;;8.96;100.00
62694;BME280;48759;52.544;13.418;2022-11-06T08:10:11;101100.81;;;9.09;100.00
62694;BME280;48759;52.544;13.418;2022-11-06T08:12:38;101104.13;;;9.05;100.00
62694;BME280;48759;52.544;13.418;2022-11-06T08:15:05;101097.94;;;9.40;100.00
62694;BME280;48759;52.544;13.418;2022-11-06T08:17:32;101100.69;;;9.40;100.00
62694;BME280;48759;52.544;13.418;2022-11-06T08:19:58;101098.00;;;9.47;100.00
62694;BME280;48759;52.544;13.418;2022-11-06T08:22:25;101090.41;;;9.19;100.00
62694;BME280;48759;52.544;13.418;2022-11-06T08:24:51;101093.25;;;9.11;100.00
62694;BME280;48759;52.544;13.418;2022-11-06T08:27:19;101094.53;;;9.53;100.00
62694;BME280;48759;52.544;13.418;2022-11-06T08:29:45;101088.38;;;9.51;100.00
62694;BME280;48759;52.544;13.418;2022-11-06T08:32:12;101096.88;;;9.27;100.00
62694;BME280;48759;52.544;13.418;2022-11-06T08:34:38;101095.66;;;9.58;100.00
62694;BME280;48759;52.544;13.418;2022-11-06T08:37:06;101105.09;;;9.85;100.00
62694;BME280;48759;52.544;13.418;2022-11-06T08:39:34;101098.75;;;9.70;100.00
62694;BME280;48759;52.544;13.418;2022-11-06T08:42:00;101095.66;;;9.58;100.00
62694;BME280;48759;52.544;13.418;2022-11-06T08:44:28;101078.47;;;9.71;100.00
62694;BME280;48759;52.544;13.418;2022-11-06T08:46:55;101084.06;;;10.14;100.00
62694;BME280;48759;52.544;13.418;2022-11-06T08:49:21;101077.78;;;10.20;100.00
62694;BME280;48759;52.544;13.418;2022-11-06T08:51:47;101073.28;;;10.55;100.00
62694;BME280;48759;52.544;13.418;2022-11-06T08:54:14;101068.59;;;10.13;100.00
62694;BME280;48759;52.544;13.418;2022-11-06T08:56:40;101071.50;;;10.68;100.00
62694;BME280;48759;52.544;13.418;2022-11-06T08:59:07;101070.19;;;10.22;100.00
62694;BME280;48759;52.544;13.418;2022-11-06T09:01:35;101080.59;;;10.48;100.00
62694;BME280;48759;52.544;13.418;2022-11-06T09:04:01;101072.59;;;10.53;100.00
62694;BME280;48759;52.544;13.418;2022-11-06T09:06:28;101068.56;;;10.70;100.00
62694;BME280;48759;52.544;13.418;2022-11-06T09:08:55;101082.09;;;10.29;100.00
62694;BME280;48759;52.544;13.418;2022-11-06T09:11:21;101073.19;;;10.27;100.00
62694;BME280;48759;52.544;13.418;2022-11-06T09:13:48;101069.75;;;11.17;100.00
62694;BME280;48759;52.544;13.418;2022-11-06T09:16:14;101062.09;;;10.56;100.00
62694;BME280;48759;52.544;13.418;2022-11-06T09:18:42;101060.75;;;11.01;99.17
62694;BME280;48759;52.544;13.418;2022-11-06T09:21:09;101061.47;;;10.89;98.94
62694;BME280;48759;52.544;13.418;2022-11-06T09:23:35;101066.19;;;10.46;100.00
62694;BME280;48759;52.544;13.418;2022-11-06T09:26:02;101070.03;;;10.51;100.00
62694;BME280;48759;52.544;13.418;2022-11-06T09:28:29;101066.63;;;9.85;100.00
62694;BME280;48759;52.544;13.418;2022-11-06T09:30:55;101076.59;;;10.08;100.00
62694;BME280;48759;52.544;13.418;2022-11-06T09:33:22;101068.03;;;10.60;100.00
62694;BME280;48759;52.544;13.418;2022-11-06T09:35:49;101065.84;;;10.13;100.00
62694;BME280;48759;52.544;13.418;2022-11-06T09:38:16;101076.31;;;10.88;100.00
62694;BME280;48759;52.544;13.418;2022-11-06T09:40:47;101072.69;;;10.17;100.00
62694;BME280;48759;52.544;13.418;2022-11-06T09:43:23;101063.16;;;10.41;100.00
62694;BME280;48759;52.544;13.418;2022-11-06T09:45:52;101064.28;;;10.46;100.00
62694;BME280;48759;52.544;13.418;2022-11-06T09:48:23;101066.22;;;10.73;99.75
62694;BME280;48759;52.544;13.418;2022-11-06T09:50:55;101061.16;;;11.05;95.96
62694;BME280;48759;52.544;13.418;2022-11-06T09:53:29;101062.72;;;11.48;93.40
62694;BME280;48759;52.544;13.418;2022-11-06T09:55:59;101070.09;;;11.41;93.28
62694;BME280;48759;52.544;13.418;2022-11-06T09:58:30;101068.06;;;11.22;93.79
62694;BME280;48759;52.544;13.418;2022-11-06T10:01:01;101071.94;;;11.62;90.63
62694;BME280;48759;52.544;13.418;2022-11-06T10:03:36;101077.63;;;10.92;95.17
62694;BME280;48759;52.544;13.418;2022-11-06T10:06:07;101062.47;;;10.53;99.64
62694;BME280;48759;52.544;13.418;2022-11-06T10:08:34;101064.53;;;11.00;97.24
62694;BME280;48759;52.544;13.418;2022-11-06T10:11:03;101064.03;;;10.62;98.92
62694;BME280;48759;52.544;13.418;2022-11-06T10:13:46;101051.50;;;10.60;97.50
62694;BME280;48759;52.544;13.418;2022-11-06T10:16:25;101049.13;;;11.47;91.70
62694;BME280;48759;52.544;13.418;2022-11-06T10:19:00;101042.50;;;11.00;95.46
62694;BME280;48759;52.544;13.418;2022-11-06T10:21:35;101044.66;;;11.87;88.94
62694;BME280;48759;52.544;13.418;2022-11-06T10:24:07;101049.34;;;11.45;91.77
62694;BME280;48759;52.544;13.418;2022-11-06T10:26:45;101047.38;;;11.33;91.98
62694;BME280;48759;52.544;13.418;2022-11-06T10:32:27;101023.91;;;11.09;94.39
62694;BME280;48759;52.544;13.418;2022-11-06T10:34:59;101024.97;;;11.49;90.69
62694;BME280;48759;52.544;13.418;2022-11-06T10:37:31;101021.56;;;11.95;86.97
62694;BME280;48759;52.544;13.418;2022-11-06T10:40:03;101026.94;;;12.36;83.95
62694;BME280;48759;52.544;13.418;2022-11-06T10:42:34;101014.53;;;11.92;86.07
62694;BME280;48759;52.544;13.418;2022-11-06T10:45:03;101015.56;;;11.78;88.82
62694;BME280;48759;52.544;13.418;2022-11-06T10:47:33;101012.22;;;11.41;89.22
62694;BME280;48759;52.544;13.418;2022-11-06T10:50:04;101017.94;;;11.94;87.58
62694;BME280;48759;52.544;13.418;2022-11-06T10:52:40;101003.03;;;11.69;88.06
62694;BME280;48759;52.544;13.418;2022-11-06T10:58:06;101003.34;;;11.52;88.51
62694;BME280;48759;52.544;13.418;2022-11-06T11:00:34;100991.16;;;11.75;89.31
62694;BME280;48759;52.544;13.418;2022-11-06T11:03:02;100994.44;;;12.24;84.80
62694;BME280;48759;52.544;13.418;2022-11-06T11:05:37;100982.34;;;12.52;82.27
62694;BME280;48759;52.544;13.418;2022-11-06T11:08:05;100977.69;;;12.19;84.20
62694;BME280;48759;52.544;13.418;2022-11-06T11:10:33;100975.34;;;12.69;81.84
62694;BME280;48759;52.544;13.418;2022-11-06T11:13:02;100972.13;;;12.06;83.67
62694;BME280;48759;52.544;13.418;2022-11-06T11:15:31;100971.28;;;12.78;80.53
62694;BME280;48759;52.544;13.418;2022-11-06T11:18:23;100960.69;;;12.22;82.81
62694;BME280;48759;52.544;13.418;2022-11-06T11:21:04;100971.94;;;12.60;80.85
62694;BME280;48759;52.544;13.418;2022-11-06T11:23:32;100972.56;;;12.89;79.16
62694;BME280;48759;52.544;13.418;2022-11-06T11:26:18;100965.78;;;12.72;79.23
62694;BME280;48759;52.544;13.418;2022-11-06T11:28:50;100961.09;;;12.59;80.07
62694;BME280;48759;52.544;13.418;2022-11-06T11:31:18;100961.09;;;12.46;80.97
62694;BME280;48759;52.544;13.418;2022-11-06T11:33:49;100959.19;;;12.40;80.46
62694;BME280;48759;52.544;13.418;2022-11-06T11:36:16;100967.50;;;12.66;79.45
62694;BME280;48759;52.544;13.418;2022-11-06T11:38:44;100964.94;;;12.45;81.16
62694;BME280;48759;52.544;13.418;2022-11-06T11:41:13;100965.56;;;12.27;82.75
62694;BME280;48759;52.544;13.418;2022-11-06T11:43:41;100966.00;;;12.83;79.53
62694;BME280;48759;52.544;13.418;2022-11-06T11:46:17;100954.31;;;12.48;80.67
62694;BME280;48759;52.544;13.418;2022-11-06T11:48:47;100948.81;;;12.35;82.93
62694;BME280;48759;52.544;13.418;2022-11-06T11:51:28;100953.47;;;12.08;82.71
62694;BME280;48759;52.544;13.418;2022-11-06T11:54:01;100942.41;;;12.08;82.33
62694;BME280;48759;52.544;13.418;2022-11-06T11:56:28;100945.81;;;12.04;84.93
62694;BME280;48759;52.544;13.418;2022-11-06T11:58:58;100941.97;;;11.98;85.58
62694;BME280;48759;52.544;13.418;2022-11-06T12:01:37;100937.13;;;12.33;83.18
62694;BME280;48759;52.544;13.418;2022-11-06T12:04:15;100930.94;;;12.38;81.99
62694;BME280;48759;52.544;13.418;2022-11-06T12:06:52;100936.06;;;12.41;80.62
62694;BME280;48759;52.544;13.418;2022-11-06T12:09:22;100932.22;;;12.42;80.27
62694;BME280;48759;52.544;13.418;2022-11-06T12:11:50;100937.97;;;12.73;79.16
62694;BME280;48759;52.544;13.418;2022-11-06T12:14:29;100913.44;;;12.96;77.22
62694;BME280;48759;52.544;13.418;2022-11-06T12:16:59;100912.19;;;12.92;77.28
62694;BME280;48759;52.544;13.418;2022-11-06T12:19:31;100913.97;;;13.25;75.59
62694;BME280;48759;52.544;13.418;2022-11-06T12:22:01;100905.91;;;13.23;74.29
62694;BME280;48759;52.544;13.418;2022-11-06T12:24:36;100908.34;;;12.93;75.73
62694;BME280;48759;52.544;13.418;2022-11-06T12:27:07;100907.63;;;13.56;73.81
62694;BME280;48759;52.544;13.418;2022-11-06T12:29:38;100910.22;;;13.57;73.02
62694;BME280;48759;52.544;13.418;2022-11-06T12:32:18;100897.94;;;13.40;73.43
62694;BME280;48759;52.544;13.418;2022-11-06T12:34:51;100894.34;;;13.77;72.15
62694;BME280;48759;52.544;13.418;2022-11-06T12:37:24;100895.94;;;13.92;71.16
62694;BME280;48759;52.544;13.418;2022-11-06T12:39:59;100896.13;;;13.21;72.83
62694;BME280;48759;52.544;13.418;2022-11-06T12:42:30;100887.13;;;13.76;70.81
62694;BME280;48759;52.544;13.418;2022-11-06T12:44:57;100888.16;;;13.44;70.56
62694;BME280;48759;52.544;13.418;2022-11-06T12:47:33;100882.94;;;13.67;70.66
62694;BME280;48759;52.544;13.418;2022-11-06T12:50:18;100889.88;;;13.76;70.34
62694;BME280;48759;52.544;13.418;2022-11-06T12:53:00;100889.50;;;13.98;69.62
62694;BME280;48759;52.544;13.418;2022-11-06T12:55:34;100883.84;;;13.48;70.90
62694;BME280;48759;52.544;13.418;2022-11-06T12:58:12;100884.31;;;13.45;71.32
62694;BME280;48759;52.544;13.418;2022-11-06T13:00:50;100878.78;;;13.45;70.55
62694;BME280;48759;52.544;13.418;2022-11-06T13:03:35;100870.44;;;13.58;70.99